Time;durP1;ratioP1;P1;durP2;ratioP2;P2;SDS_P1;SDS_P2;PMS_P1;PMS_P2;Temp;Humidity;BMP_temperature;BMP_pressure;BME280_temperature;BME280_humidity;BME280_pressure;Samples;Min_cycle;Max_cycle;Signal;HPM_P1;HPM_P2
2020/12/28 00:01:34;;;;;;;;;1.50;1.00;18.20;75.50;;;16.57;55.65;100758.91;5086015;28;8901;-62
2020/12/28 00:04:01;;;;;;;;;6.50;5.75;18.20;75.20;;;16.59;55.35;100748.09;5086482;28;8764;-60
2020/12/28 00:06:28;;;;;;;;;1.75;1.50;18.20;75.10;;;16.59;55.57;100753.41;5092657;28;8802;-60
2020/12/28 00:08:55;;;;;;;;;2.75;2.00;18.30;75.30;;;16.61;55.37;100755.00;5091704;28;8788;-60
2020/12/28 00:11:22;;;;;;;;;2.50;2.00;18.30;75.10;;;16.63;55.08;100747.66;5086513;28;8788;-60
2020/12/28 00:13:49;;;;;;;;;1.50;1.50;18.40;75.10;;;16.63;54.96;100745.00;5086127;28;8783;-59
2020/12/28 00:16:16;;;;;;;;;3.00;2.50;18.20;74.90;;;16.67;55.11;100749.09;5086581;28;9518;-58
2020/12/28 00:18:43;;;;;;;;;3.50;1.50;18.30;75.10;;;16.68;54.91;100752.59;5094129;28;8795;-58
2020/12/28 00:21:10;;;;;;;;;1.50;1.50;18.30;74.90;;;16.69;56.44;100749.78;5098612;28;8798;-48
2020/12/28 00:23:38;;;;;;;;;2.75;1.50;18.30;76.70;;;16.70;55.42;100740.78;5086278;28;9472;-49
2020/12/28 00:26:04;;;;;;;;;1.00;1.00;18.10;74.70;;;16.70;55.61;100746.13;5094460;28;8822;-55
2020/12/28 00:28:31;;;;;;;;;3.25;1.50;18.40;75.10;;;16.74;55.09;100748.50;5089205;28;9523;-50
2020/12/28 00:30:58;;;;;;;;;3.25;2.25;18.40;74.70;;;16.74;55.04;100741.38;5091267;28;8776;-55
2020/12/28 00:33:25;;;;;;;;;3.75;3.00;18.40;74.50;;;16.74;54.46;100732.50;5088578;28;8768;-55
2020/12/28 00:35:51;;;;;;;;;1.50;1.50;18.40;74.70;;;16.70;58.08;100735.47;5083783;28;8806;-50
2020/12/28 00:38:18;;;;;;;;;0.75;0.75;18.20;75.60;;;16.70;58.02;100734.63;5101129;28;8880;-49
2020/12/28 00:40:45;;;;;;;;;2.25;1.00;18.20;76.30;;;16.67;56.04;100729.56;5093866;28;8776;-48
2020/12/28 00:43:12;;;;;;;;;5.50;4.50;18.30;76.20;;;16.67;55.82;100729.56;5089216;28;8807;-50
2020/12/28 00:45:39;;;;;;;;;2.75;2.75;18.20;76.40;;;16.62;55.78;100727.31;5088521;28;8828;-53
2020/12/28 00:48:06;;;;;;;;;3.00;2.00;18.10;76.40;;;16.59;56.93;100727.63;5091625;28;8792;-51
2020/12/28 00:50:32;;;;;;;;;1.75;1.25;18.10;76.80;;;16.58;59.42;100722.41;5084442;28;8819;-54
2020/12/28 00:52:59;;;;;;;;;3.25;2.00;18.10;76.80;;;16.55;56.66;100714.69;5082908;28;8781;-48
2020/12/28 00:55:26;;;;;;;;;2.75;2.00;18.10;76.80;;;16.52;56.04;100712.31;5085442;28;8874;-49
2020/12/28 00:57:52;;;;;;;;;2.50;1.50;18.10;76.20;;;16.49;55.57;100713.44;5088416;28;8790;-49
2020/12/28 01:00:19;;;;;;;;;2.00;1.50;18.10;76.10;;;16.44;55.91;100713.88;5089374;28;8816;-49
2020/12/28 01:02:46;;;;;;;;;2.50;2.50;18.00;76.20;;;16.40;56.05;100712.44;5088043;28;8826;-51
2020/12/28 01:05:13;;;;;;;;;1.00;1.00;18.00;76.20;;;16.38;56.05;100706.41;5089040;28;8850;-48
2020/12/28 01:07:40;;;;;;;;;4.00;3.00;18.00;76.20;;;16.37;56.11;100709.25;5088946;28;8835;-49
2020/12/28 01:10:07;;;;;;;;;2.25;2.25;17.90;76.30;;;16.33;56.02;100703.31;5097744;28;8826;-49
2020/12/28 01:12:33;;;;;;;;;1.00;1.00;17.90;76.00;;;16.30;56.16;100703.63;5103331;28;8758;-49
2020/12/28 01:15:00;;;;;;;;;3.00;3.00;17.90;76.10;;;16.27;56.25;100702.06;5089371;28;8797;-52
2020/12/28 01:17:27;;;;;;;;;2.25;2.00;17.90;76.20;;;16.24;56.27;100707.69;5087966;28;8800;-48
2020/12/28 01:19:54;;;;;;;;;3.00;3.00;17.90;76.30;;;16.21;56.33;100697.31;5090412;28;8788;-50
2020/12/28 01:22:20;;;;;;;;;3.00;3.00;17.80;76.20;;;16.17;56.23;100703.06;5090407;28;8778;-51
2020/12/28 01:24:47;;;;;;;;;3.00;2.25;17.80;76.30;;;16.16;59.04;100690.72;5094012;28;8840;-48
2020/12/28 01:27:14;;;;;;;;;2.00;2.00;17.80;77.30;;;16.13;60.38;100691.84;5089598;28;8871;-49
2020/12/28 01:29:41;;;;;;;;;1.75;1.75;17.80;77.60;;;16.16;61.58;100696.06;5092174;28;9539;-51
2020/12/28 01:32:07;;;;;;;;;1.25;1.25;17.90;77.70;;;16.16;61.24;100691.56;5090189;28;8899;-49
2020/12/28 01:34:34;;;;;;;;;1.00;1.00;18.00;77.60;;;16.18;61.57;100684.28;5094783;28;8837;-50
2020/12/28 01:37:01;;;;;;;;;1.75;1.75;18.00;77.90;;;16.18;62.15;100680.75;5093038;28;8805;-51
2020/12/28 01:39:28;;;;;;;;;2.75;2.75;18.00;77.30;;;16.19;61.07;100672.63;5093466;28;8820;-48
2020/12/28 01:41:55;;;;;;;;;3.25;2.00;18.00;77.50;;;16.19;62.76;100661.13;5092784;28;8904;-54
2020/12/28 01:44:22;;;;;;;;;2.50;2.50;18.00;77.80;;;16.19;61.63;100663.78;5091686;28;8842;-48
2020/12/28 01:46:49;;;;;;;;;1.25;1.25;18.10;77.80;;;16.19;61.95;100664.63;5092606;28;8772;-49
2020/12/28 01:49:16;;;;;;;;;2.25;2.00;18.00;77.40;;;16.20;63.27;100657.47;5093168;28;8813;-50
2020/12/28 01:51:45;;;;;;;;;1.75;1.75;18.00;77.60;;;16.19;63.50;100661.97;5092669;28;8770;-51
2020/12/28 01:54:12;;;;;;;;;3.25;3.25;18.00;77.70;;;16.20;63.09;100646.81;5092688;28;8882;-49
2020/12/28 01:56:40;;;;;;;;;2.00;1.00;18.10;77.30;;;16.20;62.46;100657.47;5091282;28;8752;-49
2020/12/28 01:59:08;;;;;;;;;1.75;1.75;18.00;77.30;;;16.18;62.65;100656.75;5082611;28;8803;-49
2020/12/28 02:01:43;;;;;;;;;2.00;1.75;18.20;77.40;;;16.18;61.69;100648.75;5090353;28;9691;-48
2020/12/28 02:04:10;;;;;;;;;1.75;1.75;18.00;76.90;;;16.18;63.67;100651.44;5092256;28;8760;-49
2020/12/28 02:06:37;;;;;;;;;2.75;2.75;18.00;77.50;;;16.18;62.46;100643.44;5094156;28;8784;-53
2020/12/28 02:09:04;;;;;;;;;2.00;1.00;18.00;77.10;;;16.16;60.46;100646.25;5086886;28;8926;-51
2020/12/28 02:11:31;;;;;;;;;3.00;1.50;18.00;77.40;;;16.14;60.96;100650.88;5088760;28;8985;-49
2020/12/28 02:13:58;;;;;;;;;1.00;1.00;18.00;77.60;;;16.13;62.38;100646.53;5093902;28;8940;-50
2020/12/28 02:16:25;;;;;;;;;2.50;1.50;17.90;77.20;;;16.13;62.04;100657.19;5089913;28;8780;-52
2020/12/28 02:18:53;;;;;;;;;2.00;2.00;17.90;76.90;;;16.11;59.14;100653.00;5100605;28;8770;-49
2020/12/28 02:21:20;;;;;;;;;1.50;1.00;17.90;77.60;;;16.12;60.14;100652.00;5091592;28;8808;-50
2020/12/28 02:23:47;;;;;;;;;2.50;1.75;17.80;78.10;;;16.12;60.72;100660.81;5097214;28;8796;-49
2020/12/28 02:26:14;;;;;;;;;2.00;1.50;17.90;78.30;;;16.12;60.63;100668.81;5093617;28;8814;-52
2020/12/28 02:28:40;;;;;;;;;2.25;2.25;17.90;78.50;;;16.13;60.70;100675.84;5085120;28;8828;-50
2020/12/28 02:31:07;;;;;;;;;1.75;1.00;17.90;78.60;;;16.15;60.19;100679.19;5088219;28;8816;-53
2020/12/28 02:33:34;;;;;;;;;2.25;2.00;17.90;78.80;;;16.16;60.92;100675.56;5086907;28;8787;-49
2020/12/28 02:36:01;;;;;;;;;2.00;1.75;17.90;79.10;;;16.19;63.35;100677.13;5093491;28;8821;-52
2020/12/28 02:38:28;;;;;;;;;1.75;1.75;18.00;79.30;;;16.21;63.61;100676.00;5096754;28;8774;-51
2020/12/28 02:40:54;;;;;;;;;1.75;1.75;18.00;79.80;;;16.21;62.56;100676.00;5086498;28;8799;-50
2020/12/28 02:43:21;;;;;;;;;2.75;2.75;18.00;79.30;;;16.26;62.45;100694.22;5088908;28;8792;-51
2020/12/28 02:45:48;;;;;;;;;3.75;3.00;18.00;79.30;;;16.26;62.66;100681.75;5089143;28;8811;-55
2020/12/28 02:48:15;;;;;;;;;3.75;3.75;18.20;79.50;;;16.28;62.35;100687.78;5085748;28;8795;-49
2020/12/28 02:50:41;;;;;;;;;2.75;2.75;18.10;79.60;;;16.32;63.85;100684.81;5089932;28;8888;-52
2020/12/28 02:53:08;;;;;;;;;4.50;3.00;18.10;80.10;;;16.32;64.06;100682.16;5087323;28;8887;-50
2020/12/28 02:55:35;;;;;;;;;3.75;3.00;18.10;80.00;;;16.35;61.71;100679.22;5093340;28;8803;-50
2020/12/28 02:58:02;;;;;;;;;3.75;3.75;18.10;79.70;;;16.37;63.10;100678.09;5086163;28;8906;-50
2020/12/28 03:00:28;;;;;;;;;3.25;3.00;18.20;79.60;;;16.37;63.83;100680.75;5087354;28;8792;-49
2020/12/28 03:02:55;;;;;;;;;4.00;4.00;18.10;80.00;;;16.39;64.90;100670.78;5096980;28;8845;-54
2020/12/28 03:05:22;;;;;;;;;3.25;3.25;18.20;80.00;;;16.41;64.32;100663.50;5080804;28;8827;-52
2020/12/28 03:07:49;;;;;;;;;4.50;4.50;18.20;80.50;;;16.44;64.46;100670.38;5081317;28;8967;-53
2020/12/28 03:10:16;;;;;;;;;4.50;4.00;18.20;80.20;;;16.45;64.33;100661.38;5089267;28;8832;-48
2020/12/28 03:12:42;;;;;;;;;4.00;4.00;18.40;79.50;;;16.48;63.38;100658.41;5079711;28;8863;-50
2020/12/28 03:15:09;;;;;;;;;7.00;5.00;18.20;79.00;;;16.49;61.73;100660.94;5085023;28;8810;-52
2020/12/28 03:17:36;;;;;;;;;4.25;4.25;18.30;80.00;;;16.54;63.04;100657.88;5086215;28;8827;-50
2020/12/28 03:20:04;;;;;;;;;4.75;4.50;18.30;80.00;;;16.57;64.96;100662.91;5086408;28;9529;-48
2020/12/28 03:22:31;;;;;;;;;5.25;4.50;18.30;80.10;;;16.60;64.26;100662.63;5084977;28;8792;-50
2020/12/28 03:24:58;;;;;;;;;4.25;4.00;18.30;79.80;;;16.63;62.92;100658.81;5088437;28;8838;-50
2020/12/28 03:27:25;;;;;;;;;5.00;5.00;18.40;78.70;;;16.64;62.29;100656.03;5089123;28;8872;-50
2020/12/28 03:29:51;;;;;;;;;5.00;4.50;18.40;78.70;;;16.66;63.66;100647.84;5080969;28;9500;-50
2020/12/28 03:32:18;;;;;;;;;3.50;3.50;18.60;79.20;;;16.68;62.06;100644.06;5083938;28;8912;-50
2020/12/28 03:34:45;;;;;;;;;5.50;3.25;18.20;78.70;;;16.69;63.42;100643.09;5087780;28;8780;-49
2020/12/28 03:37:12;;;;;;;;;5.50;4.75;18.40;78.90;;;16.72;61.92;100636.63;5082386;28;8815;-49
2020/12/28 03:39:39;;;;;;;;;3.25;3.25;18.50;79.90;;;16.68;59.53;100643.22;5088590;28;8782;-48
2020/12/28 03:42:06;;;;;;;;;4.50;3.25;18.40;79.20;;;16.66;61.52;100637.19;5093887;28;8838;-50
2020/12/28 03:44:33;;;;;;;;;4.00;3.00;18.30;80.20;;;16.68;61.84;100630.72;5091413;28;8836;-49
2020/12/28 03:46:59;;;;;;;;;4.25;3.50;18.20;80.80;;;16.75;61.92;100617.66;5086247;28;8885;-48
2020/12/28 03:49:26;;;;;;;;;6.50;5.00;18.50;80.80;;;16.86;61.58;100612.16;5086107;28;8795;-50
2020/12/28 03:51:53;;;;;;;;;3.00;2.25;18.40;80.40;;;16.98;62.04;100620.84;5086412;28;8839;-50
2020/12/28 03:54:20;;;;;;;;;3.00;3.00;18.70;80.80;;;17.07;61.50;100613.75;5087365;28;8772;-51
2020/12/28 03:56:47;;;;;;;;;2.25;2.25;18.80;80.60;;;17.16;61.86;100620.06;5086492;28;8824;-53
2020/12/28 03:59:13;;;;;;;;;3.25;3.25;18.90;80.40;;;17.26;61.66;100621.69;5087863;28;8959;-48
2020/12/28 04:01:40;;;;;;;;;2.75;2.75;18.80;80.20;;;17.38;61.16;100629.47;5091283;28;8882;-48
2020/12/28 04:04:07;;;;;;;;;2.75;2.75;19.10;80.50;;;17.46;61.09;100626.94;5090880;28;8861;-49
2020/12/28 04:06:34;;;;;;;;;3.00;3.00;19.20;80.20;;;17.56;60.67;100620.53;5089424;28;8871;-49
2020/12/28 04:09:01;;;;;;;;;1.75;1.75;19.20;79.50;;;17.64;60.77;100618.94;5089452;28;8780;-50
2020/12/28 04:11:28;;;;;;;;;2.25;1.75;19.40;79.90;;;17.65;61.27;100615.28;5080629;28;8772;-50
2020/12/28 04:13:54;;;;;;;;;2.00;2.00;19.30;79.70;;;17.62;60.96;100618.25;5093352;28;8769;-52
2020/12/28 04:16:21;;;;;;;;;0.00;0.00;19.20;79.40;;;17.58;60.37;100631.91;5089584;28;9518;-49
2020/12/28 04:18:48;;;;;;;;;3.75;3.75;19.20;79.00;;;17.54;59.97;100619.84;5091886;28;8798;-52
2020/12/28 04:21:15;;;;;;;;;4.00;3.00;19.40;79.80;;;17.56;61.54;100609.84;5087941;28;8833;-49
2020/12/28 04:23:42;;;;;;;;;4.75;4.25;19.40;81.20;;;17.63;61.20;100612.78;5089172;28;8788;-50
2020/12/28 04:26:08;;;;;;;;;5.25;5.25;19.20;80.80;;;17.67;60.89;100619.47;5090756;28;8867;-49
2020/12/28 04:28:35;;;;;;;;;3.00;3.00;19.30;80.50;;;17.66;62.06;100606.28;5086552;28;9512;-49
2020/12/28 04:31:02;;;;;;;;;3.50;3.50;19.30;80.50;;;17.63;61.48;100603.88;5091159;28;8791;-51
2020/12/28 04:33:29;;;;;;;;;6.75;6.00;19.00;79.80;;;17.62;61.47;100597.72;5097580;28;8895;-52
2020/12/28 04:35:56;;;;;;;;;8.75;8.75;19.10;80.20;;;17.63;60.98;100599.41;5093747;28;9532;-48
2020/12/28 04:38:23;;;;;;;;;7.25;7.25;19.00;80.70;;;17.69;60.75;100593.44;5091602;28;8766;-49
2020/12/28 04:40:51;;;;;;;;;7.00;7.00;19.30;80.40;;;17.69;61.87;100595.28;5087912;28;8840;-49
2020/12/28 04:43:18;;;;;;;;;5.75;5.25;19.60;80.30;;;17.68;61.67;100597.13;5090936;28;8783;-50
2020/12/28 04:45:45;;;;;;;;;9.25;9.25;19.30;80.40;;;17.67;60.87;100591.91;5090535;28;8851;-49
2020/12/28 04:48:12;;;;;;;;;7.50;7.50;19.40;79.60;;;17.62;59.91;100587.03;5091181;28;8827;-48
2020/12/28 04:50:41;;;;;;;;;9.67;9.67;19.20;79.90;;;17.66;60.97;100600.94;5096362;28;8815;-51
2020/12/28 04:53:08;;;;;;;;;4.75;4.25;19.30;80.90;;;17.70;60.88;100605.81;5091809;28;8834;-49
2020/12/28 04:55:34;;;;;;;;;10.75;9.50;19.30;80.70;;;17.75;60.04;100595.50;5069704;28;8826;-49
2020/12/28 04:58:01;;;;;;;;;9.00;9.00;19.40;79.90;;;17.78;60.83;100589.88;5068626;28;8907;-49
2020/12/28 05:00:28;;;;;;;;;7.00;7.00;19.40;80.00;;;17.79;60.75;100593.38;5089140;28;8815;-49
2020/12/28 05:02:55;;;;;;;;;7.50;7.50;19.50;79.50;;;17.81;61.23;100594.09;5087688;28;8985;-51
2020/12/28 05:05:22;;;;;;;;;2.75;2.75;19.50;79.30;;;17.82;61.06;100587.75;5087517;28;10641;-49
2020/12/28 05:07:50;;;;;;;;;8.50;8.50;19.40;80.60;;;17.88;59.67;100592.47;5088185;28;9543;-49
2020/12/28 05:10:26;;;;;;;;;10.00;10.00;19.70;79.90;;;17.96;61.76;100589.91;5088532;28;9761;-57
2020/12/28 05:12:53;;;;;;;;;3.00;2.50;19.50;79.80;;;17.98;62.08;100590.56;5083905;28;9453;-56
2020/12/28 05:15:20;;;;;;;;;7.25;7.25;19.70;80.00;;;18.00;62.59;100591.25;5085000;28;8795;-56
2020/12/28 05:17:55;;;;;;;;;9.00;9.00;19.70;80.00;;;18.03;63.29;100589.28;5065766;28;8846;-57
2020/12/28 05:20:25;;;;;;;;;6.00;6.00;19.60;80.50;;;18.04;60.67;100593.59;5086376;28;8784;-56
2020/12/28 05:22:54;;;;;;;;;7.25;7.25;19.70;79.30;;;18.10;60.31;100593.00;5086306;28;8826;-55
2020/12/28 05:25:23;;;;;;;;;6.00;6.00;19.60;79.70;;;18.17;60.05;100591.41;5087457;28;8795;-56
2020/12/28 05:27:52;;;;;;;;;5.25;5.00;19.80;79.30;;;18.20;61.64;100596.44;5089662;28;8912;-56
2020/12/28 05:30:22;;;;;;;;;5.00;5.00;19.90;79.70;;;18.22;61.59;100597.94;5090197;28;8796;-57
2020/12/28 05:32:49;;;;;;;;;6.00;6.00;19.90;80.00;;;18.24;60.88;100603.13;5088086;28;10005;-56
2020/12/28 05:35:16;;;;;;;;;6.00;6.00;20.00;79.40;;;18.23;58.24;100586.25;5090951;28;8792;-56
2020/12/28 05:37:48;;;;;;;;;5.00;5.00;20.00;78.80;;;18.26;58.93;100585.09;5087714;28;8764;-55
2020/12/28 05:40:17;;;;;;;;;5.00;5.00;19.90;79.00;;;18.32;59.18;100595.19;5088131;28;8758;-57
2020/12/28 05:42:54;;;;;;;;;4.50;4.50;19.80;78.80;;;18.37;60.46;100584.03;5070759;28;8779;-55
2020/12/28 05:45:22;;;;;;;;;4.00;4.00;20.10;79.50;;;18.39;60.34;100582.00;5088204;28;8797;-48
2020/12/28 05:47:57;;;;;;;;;5.00;5.00;20.00;79.70;;;18.41;60.03;100588.88;5096246;28;8805;-48
2020/12/28 05:50:30;;;;;;;;;4.25;3.75;20.20;78.80;;;18.41;60.42;100586.22;5096394;28;8814;-50
2020/12/28 05:53:00;;;;;;;;;4.75;4.00;20.00;78.90;;;18.42;59.32;100579.88;5092790;28;8831;-48
2020/12/28 05:55:31;;;;;;;;;5.25;4.00;20.00;78.80;;;18.44;58.68;100580.56;5091375;28;8788;-48
2020/12/28 05:58:00;;;;;;;;;4.50;4.50;20.10;79.30;;;18.50;59.99;100572.91;5084356;28;8800;-49
2020/12/28 06:00:27;;;;;;;;;4.00;4.00;20.10;79.40;;;18.51;60.15;100575.41;5085963;28;8817;-49
2020/12/28 06:02:54;;;;;;;;;4.50;4.25;20.20;79.20;;;18.51;60.47;100571.91;5086429;28;8802;-49
2020/12/28 06:05:22;;;;;;;;;5.75;5.50;20.00;78.40;;;18.50;58.54;100575.59;5091138;28;8809;-57
2020/12/28 06:07:49;;;;;;;;;6.50;6.50;20.00;78.40;;;18.51;61.61;100566.56;5086197;28;8786;-56
2020/12/28 06:10:16;;;;;;;;;4.50;4.50;19.90;78.60;;;18.50;59.85;100563.03;5089067;28;8833;-57
2020/12/28 06:12:43;;;;;;;;;4.00;4.00;20.30;78.50;;;18.49;59.62;100571.22;5084774;28;8776;-56
2020/12/28 06:15:20;;;;;;;;;4.50;4.50;20.10;78.80;;;18.50;61.19;100560.38;5084677;28;8916;-57
2020/12/28 06:17:48;;;;;;;;;2.25;2.25;20.10;78.60;;;18.49;61.58;100550.66;5092254;28;8818;-57
2020/12/28 06:20:16;;;;;;;;;2.50;2.50;20.10;79.00;;;18.49;60.43;100549.81;5095874;28;8844;-56
2020/12/28 06:22:44;;;;;;;;;5.50;5.50;20.10;78.80;;;18.49;60.74;100549.81;5089158;28;8772;-57
2020/12/28 06:25:17;;;;;;;;;3.75;3.75;20.10;78.70;;;18.49;60.67;100547.13;5090350;28;8823;-57
2020/12/28 06:27:47;;;;;;;;;4.25;4.00;20.10;79.00;;;18.49;61.01;100552.50;5079326;28;8774;-56
2020/12/28 06:30:22;;;;;;;;;4.00;4.00;20.20;79.50;;;18.48;60.20;100545.47;5092468;28;8782;-51
2020/12/28 06:33:01;;;;;;;;;3.00;3.00;20.10;79.30;;;18.49;61.28;100545.28;5089808;28;9583;-51
2020/12/28 06:35:32;;;;;;;;;4.00;4.00;20.10;80.40;;;18.50;61.48;100543.50;5079002;28;8795;-51
2020/12/28 06:38:03;;;;;;;;;3.50;3.50;20.20;78.80;;;18.51;60.75;100537.97;5092197;28;8834;-48
2020/12/28 06:40:37;;;;;;;;;4.00;4.00;20.20;78.50;;;18.53;61.24;100533.28;5085146;28;8838;-50
2020/12/28 06:43:15;;;;;;;;;3.25;3.25;20.10;78.40;;;18.54;61.00;100534.97;5088861;28;8766;-48
2020/12/28 06:45:45;;;;;;;;;4.00;3.50;20.20;78.50;;;18.53;60.62;100533.28;5094299;28;8829;-48
2020/12/28 06:48:24;;;;;;;;;4.25;4.25;20.30;78.10;;;18.54;60.71;100537.63;5099945;28;8792;-49
2020/12/28 06:50:54;;;;;;;;;4.00;4.00;20.10;78.00;;;18.55;61.34;100533.97;5077876;28;8802;-57
2020/12/28 06:53:25;;;;;;;;;5.00;5.00;20.20;78.70;;;18.55;61.92;100528.63;5099816;28;8937;-56
2020/12/28 06:55:52;;;;;;;;;3.75;3.75;20.00;79.40;;;18.57;61.00;100534.66;5099913;28;8891;-56
2020/12/28 06:58:19;;;;;;;;;2.75;2.75;20.10;79.10;;;18.58;61.63;100524.78;5088172;28;8867;-56
2020/12/28 07:00:46;;;;;;;;;3.75;3.75;20.20;79.40;;;18.58;60.98;100524.78;5092043;28;8796;-55
2020/12/28 07:03:16;;;;;;;;;3.25;3.25;20.20;78.60;;;18.60;61.81;100530.84;5092412;28;8928;-57
2020/12/28 07:05:44;;;;;;;;;4.00;3.25;20.20;79.20;;;18.59;60.80;100526.47;5099322;28;8951;-56
2020/12/28 07:08:11;;;;;;;;;3.50;3.50;20.50;79.00;;;18.61;61.61;100522.63;5103876;28;9463;-56
2020/12/28 07:10:38;;;;;;;;;3.00;3.00;20.10;78.70;;;18.62;61.20;100515.44;5092468;28;8776;-56
2020/12/28 07:13:07;;;;;;;;;3.00;3.00;20.30;78.70;;;18.62;60.96;100510.09;5088960;28;8864;-56
2020/12/28 07:15:35;;;;;;;;;3.00;3.00;20.20;78.30;;;18.61;60.85;100506.56;5087349;28;8916;-57
2020/12/28 07:18:08;;;;;;;;;3.00;3.00;20.40;78.90;;;18.62;60.54;100515.44;5091888;28;8784;-56
2020/12/28 07:20:36;;;;;;;;;3.00;3.00;20.10;78.70;;;18.63;61.50;100509.09;5085229;28;8764;-55
2020/12/28 07:23:03;;;;;;;;;3.00;3.00;20.50;78.70;;;18.62;60.72;100512.75;5087496;28;8809;-56
2020/12/28 07:25:30;;;;;;;;;3.00;2.00;20.30;78.20;;;18.62;61.38;100504.72;5090707;28;8815;-57
2020/12/28 07:27:57;;;;;;;;;3.00;3.00;20.40;78.30;;;18.61;60.22;100509.25;5092910;28;8888;-55
2020/12/28 07:30:24;;;;;;;;;3.00;2.75;20.30;77.90;;;18.61;60.80;100508.41;5084273;28;8810;-49
2020/12/28 07:32:58;;;;;;;;;4.00;3.50;20.30;78.20;;;18.63;58.85;100495.72;5088197;28;8782;-51
2020/12/28 07:35:25;;;;;;;;;1.75;1.50;20.30;78.40;;;18.64;59.10;100505.41;5091210;28;9492;-49
2020/12/28 07:37:52;;;;;;;;;4.00;3.00;20.30;78.00;;;18.63;58.97;100506.44;5091302;28;8817;-49
2020/12/28 07:40:19;;;;;;;;;3.75;3.50;20.00;78.20;;;18.61;59.10;100505.75;5076292;28;9512;-48
2020/12/28 07:42:46;;;;;;;;;3.00;2.25;20.20;77.90;;;18.63;59.82;100507.25;5084867;28;8776;-48
2020/12/28 07:45:13;;;;;;;;;3.00;3.00;20.30;77.50;;;18.62;57.35;100504.72;5086573;28;8819;-50
2020/12/28 07:47:49;;;;;;;;;3.00;2.50;20.20;77.40;;;18.61;57.50;100500.41;5046045;28;8780;-48
2020/12/28 07:50:17;;;;;;;;;2.00;1.25;20.20;77.60;;;18.60;59.10;100501.41;5074720;28;8873;-55
2020/12/28 07:53:19;;;;;;;;;2.75;2.75;20.00;78.20;;;18.56;59.29;100500.88;5073505;28;8863;-55
2020/12/28 07:56:01;;;;;;;;;6.00;3.00;20.20;77.80;;;18.55;59.98;100498.38;5070194;28;8801;-55
2020/12/28 07:58:54;;;;;;;;;5.00;4.00;20.10;77.80;;;18.51;59.63;100488.97;5092077;28;8891;-55
2020/12/28 08:01:36;;;;;;;;;3.00;3.00;20.20;78.00;;;18.51;59.41;100491.66;5074644;28;8866;-49
2020/12/28 08:04:06;;;;;;;;;2.50;2.50;20.30;78.40;;;18.52;59.58;100485.28;5076200;28;8810;-52
2020/12/28 08:06:34;;;;;;;;;5.00;4.50;20.20;79.10;;;18.54;60.55;100483.31;5090958;28;8954;-50
2020/12/28 08:09:04;;;;;;;;;3.00;1.50;20.10;78.10;;;18.54;61.92;100480.63;5075413;28;8807;-51
2020/12/28 08:11:32;;;;;;;;;3.25;3.25;20.20;78.70;;;18.54;61.13;100475.28;5088252;28;8868;-51
2020/12/28 08:14:09;;;;;;;;;3.50;3.50;20.20;78.20;;;18.55;60.34;100466.28;5088735;28;8803;-53
2020/12/28 08:16:36;;;;;;;;;0.00;0.00;20.40;78.50;;;18.54;60.86;100475.28;5091925;28;8796;-54
2020/12/28 08:19:04;;;;;;;;;2.00;2.00;20.20;78.30;;;18.55;60.93;100474.28;5089608;28;8902;-52
2020/12/28 08:21:43;;;;;;;;;2.50;2.50;20.40;78.30;;;18.51;60.24;100465.72;5089833;28;8788;-51
2020/12/28 08:24:18;;;;;;;;;2.67;2.67;20.30;79.50;;;18.49;61.42;100461.53;5090185;28;8891;-49
2020/12/28 08:26:46;;;;;;;;;4.00;2.00;20.30;78.30;;;18.48;60.51;100452.69;5088639;28;8808;-50
2020/12/28 08:29:14;;;;;;;;;3.00;3.00;20.20;78.30;;;18.44;60.67;100446.84;5090117;28;8793;-49
2020/12/28 08:31:42;;;;;;;;;1.00;1.00;20.00;78.30;;;18.42;61.28;100456.84;5088433;28;8816;-48
2020/12/28 08:34:16;;;;;;;;;3.00;2.00;20.10;79.00;;;18.40;60.39;100450.81;5091066;28;8807;-50
2020/12/28 08:36:54;;;;;;;;;3.00;3.00;20.00;78.30;;;18.37;60.68;100451.16;5090960;28;8838;-50
2020/12/28 08:39:25;;;;;;;;;2.00;2.00;20.00;78.60;;;18.36;61.43;100445.94;5095383;28;8746;-48
2020/12/28 08:41:59;;;;;;;;;2.00;2.00;20.20;78.70;;;18.34;61.28;100447.94;5101399;28;8774;-48
2020/12/28 08:44:31;;;;;;;;;2.25;2.25;20.10;78.60;;;18.34;61.13;100450.59;5098473;28;8876;-49
2020/12/28 08:47:00;;;;;;;;;2.00;2.00;20.00;78.70;;;18.29;61.03;100445.72;5091105;28;8770;-48
2020/12/28 08:49:32;;;;;;;;;5.25;3.00;20.10;78.70;;;18.29;61.40;100461.78;5101487;28;8789;-50
2020/12/28 08:52:14;;;;;;;;;1.50;1.50;20.00;78.90;;;18.27;61.68;100455.78;5085195;28;8771;-49
2020/12/28 08:54:42;;;;;;;;;1.00;1.00;19.90;78.90;;;18.26;61.26;100451.41;5098970;28;8890;-48
2020/12/28 08:57:38;;;;;;;;;4.75;4.75;19.80;78.60;;;18.25;61.48;100448.91;5094893;28;8888;-49
2020/12/28 09:00:06;;;;;;;;;3.00;3.00;19.90;78.90;;;18.21;61.21;100451.88;5075196;28;8789;-50
2020/12/28 09:02:33;;;;;;;;;3.00;3.00;19.90;79.00;;;18.19;61.09;100445.00;5084763;28;8865;-49
2020/12/28 09:05:00;;;;;;;;;2.25;2.25;19.80;78.80;;;18.17;61.38;100444.34;5096098;28;8819;-48
2020/12/28 09:07:27;;;;;;;;;2.00;2.00;19.70;78.90;;;18.16;61.19;100434.66;5101585;28;9529;-49
2020/12/28 09:09:53;;;;;;;;;2.00;1.50;19.90;79.10;;;18.14;60.72;100436.63;5093680;28;9529;-49
2020/12/28 09:12:20;;;;;;;;;2.00;2.00;19.70;78.80;;;18.12;61.21;100427.97;5090276;28;9516;-50
2020/12/28 09:14:47;;;;;;;;;3.00;3.00;19.70;78.90;;;18.11;61.11;100429.75;5085388;28;8827;-49
2020/12/28 09:17:14;;;;;;;;;2.25;2.00;19.80;79.10;;;18.11;61.43;100428.94;5088915;28;8796;-49
2020/12/28 09:19:41;;;;;;;;;1.75;1.75;19.90;79.20;;;18.08;61.57;100422.06;5096451;28;8844;-49
2020/12/28 09:22:08;;;;;;;;;0.75;0.75;19.70;79.10;;;18.08;61.57;100426.59;5101175;28;8840;-49
2020/12/28 09:24:34;;;;;;;;;2.00;2.00;19.90;79.20;;;18.05;61.51;100417.06;5088657;28;8838;-50
2020/12/28 09:27:01;;;;;;;;;3.00;3.00;19.70;79.00;;;18.05;62.28;100424.25;5092461;28;8760;-52
2020/12/28 09:29:28;;;;;;;;;4.00;3.00;19.90;79.20;;;18.04;62.05;100425.22;5092813;28;8775;-52
2020/12/28 09:31:55;;;;;;;;;2.00;2.00;19.80;79.10;;;18.02;61.84;100421.88;5089787;28;8780;-52
2020/12/28 09:34:21;;;;;;;;;2.00;2.00;19.50;79.00;;;18.02;61.79;100432.59;5088402;28;8780;-52
2020/12/28 09:37:00;;;;;;;;;1.75;1.00;19.70;79.10;;;17.99;60.90;100433.72;5090134;28;8799;-51
2020/12/28 09:39:27;;;;;;;;;1.50;1.50;19.70;79.10;;;17.98;61.51;100438.22;5090375;28;8783;-49
2020/12/28 09:41:54;;;;;;;;;2.00;2.00;19.70;79.10;;;17.98;61.52;100438.22;5092140;28;8756;-49
2020/12/28 09:44:21;;;;;;;;;3.50;2.50;19.60;79.10;;;17.97;61.98;100452.59;5089752;28;8760;-49
2020/12/28 09:46:53;;;;;;;;;2.00;2.00;19.70;79.20;;;17.95;61.85;100454.56;5088242;28;8806;-48
2020/12/28 09:49:21;;;;;;;;;3.00;3.00;19.60;79.00;;;17.93;61.23;100450.38;5089722;28;8794;-48
2020/12/28 09:51:52;;;;;;;;;2.25;2.25;19.60;79.00;;;17.92;61.46;100462.06;5087356;28;8778;-50
2020/12/28 09:54:23;;;;;;;;;3.00;3.00;19.60;79.00;;;17.91;61.47;100461.25;5091652;28;8906;-48
2020/12/28 09:56:50;;;;;;;;;3.50;3.00;19.70;79.10;;;17.89;61.23;100471.25;5095204;28;8931;-49
2020/12/28 09:59:17;;;;;;;;;2.00;2.00;19.50;79.00;;;17.86;61.23;100455.53;5094042;28;8812;-48
2020/12/28 10:01:46;;;;;;;;;2.00;2.00;19.70;79.10;;;17.86;61.54;100460.00;5091018;28;8845;-49
2020/12/28 10:04:13;;;;;;;;;3.00;3.00;19.70;79.10;;;17.85;61.99;100461.84;5092280;28;8776;-51
2020/12/28 10:06:40;;;;;;;;;2.75;2.75;19.80;79.40;;;17.83;61.71;100453.16;5094306;28;8795;-49
2020/12/28 10:09:10;;;;;;;;;4.25;2.50;19.60;79.10;;;17.84;61.53;100454.84;5090648;28;8809;-50
2020/12/28 10:11:38;;;;;;;;;2.00;2.00;19.60;79.10;;;17.80;61.84;100445.44;5091035;28;8808;-53
2020/12/28 10:14:05;;;;;;;;;2.25;2.25;19.50;78.90;;;17.81;61.65;100440.94;5086827;28;8805;-49
2020/12/28 10:16:33;;;;;;;;;2.00;1.25;19.50;78.80;;;17.78;61.76;100456.28;5085801;28;8787;-48
2020/12/28 10:19:00;;;;;;;;;3.00;2.00;19.50;79.10;;;17.78;61.57;100460.75;5094106;28;8810;-48
2020/12/28 10:21:28;;;;;;;;;2.50;2.00;19.80;79.30;;;17.75;61.96;100453.91;5094183;28;8887;-51
2020/12/28 10:23:55;;;;;;;;;1.75;1.75;19.60;79.20;;;17.75;61.84;100442.38;5093619;28;9357;-49
2020/12/28 10:26:28;;;;;;;;;2.25;2.25;19.80;79.50;;;17.74;61.69;100452.22;5091025;28;8832;-48